• Join FlightAware (Why Join?)
  • Login
  • US Flag 
07:39AM EDT


 

Airport Tracker/Info


-or-


 

Live Flight TrackerFlight Track Log ✈ DAL268 ✈ 30-Apr-2013 ✈ KATL - KJFK

Flight Track Log - Related Links

Times and Time Zones

All times are in EDT time to prevent confusion due to time zone crossing. See the DAL268 flight status page for this flight to view local times or setup timezone preferences in your user account.

Time Position Orientation Groundspeed Altitude Reporting Facility
EDT Latitude Longitude Course Direction KTS MPH feet Rate Location/Type
06:47PM 33.6333 -84.3833 90° East 175 201 2,200  Level Atlanta TRACON
06:48PM 33.6333 -84.3167 90° East 248 285 4,000 2,280 Climbing Atlanta TRACON
06:49PM 33.6333 -84.2167 90° East 274 315 7,000 2,760 Climbing Atlanta TRACON
06:50PM 33.6333 -84.1167 90° East 286 329 9,900 2,040 Climbing Atlanta TRACON
06:51PM 33.6378 -84.0064 87° East 298 343 11,400 1,200 Climbing Atlanta Center
06:52PM 33.6458 -83.8842 85° East 338 389 12,500 1,560 Climbing Atlanta Center
06:53PM 33.6519 -83.7444 87° East 393 452 14,600 2,340 Climbing Atlanta Center
06:54PM 33.6725 -83.6044 80° East 418 481 17,200 2,100 Climbing Atlanta Center
06:55PM 33.7261 -83.4769 63° Northeast 422 486 18,900 1,680 Climbing Atlanta Center
06:56PM 33.7778 -83.3464 65° Northeast 434 499 20,600 1,020 Climbing Atlanta Center
06:57PM 33.8353 -83.2086 63° Northeast 450 518 21,000 720 Climbing Atlanta Center
06:58PM 33.8844 -83.0881 64° Northeast 450 518 22,100 1,380 Climbing Atlanta Center
06:59PM 33.9397 -82.9444 65° Northeast 455 524 23,800 1,800 Climbing Atlanta Center
07:00PM 33.9967 -82.8061 64° Northeast 455 524 25,800 1,560 Climbing Atlanta Center
07:01PM 34.0536 -82.6672 64° Northeast 455 524 27,000 600 Climbing Atlanta Center
07:02PM 34.1044 -82.5311 66° East 444 511 27,000  Level Atlanta Center
07:03PM 34.1589 -82.3944 64° Northeast 444 511 27,000  Level Atlanta Center
07:04PM 34.2133 -82.2553 65° Northeast 444 511 27,000  Level Atlanta Center
07:05PM 34.2675 -82.1183 64° Northeast 444 511 27,000  Level Atlanta Center
07:06PM 34.3344 -81.9886 58° Northeast 449 517 27,000  Level Atlanta Center
07:07PM 34.4008 -81.8561 59° Northeast 449 517 27,000  Level Atlanta Center
07:08PM 34.4653 -81.7258 59° Northeast 449 517 27,000  Level Atlanta Center
07:09PM 34.5297 -81.5956 59° Northeast 449 517 27,000  Level Atlanta Center
07:10PM 34.5978 -81.4622 58° Northeast 455 524 27,000  Level Atlanta Center
07:11PM 34.6619 -81.3342 59° Northeast 450 518 27,000  Level Atlanta Center
07:12PM 34.7258 -81.2031 59° Northeast 444 511 27,000  Level Atlanta Center
07:13PM 34.7894 -81.0694 60° Northeast 453 521 27,000  Level Atlanta Center
07:14PM 34.8528 -80.9408 59° Northeast 447 514 27,000  Level Atlanta Center
07:15PM 34.9161 -80.8067 60° Northeast 452 520 27,000  Level Atlanta Center
07:16PM 34.9817 -80.6747 59° Northeast 452 520 27,000  Level Atlanta Center
07:18PM 35.1347 -80.3567 59° Northeast 450 518 27,000  Level Washington Center
07:19PM 35.1942 -80.2253 61° Northeast 455 524 27,000  Level Washington Center
07:20PM 35.2575 -80.0942 59° Northeast 464 534 27,000  Level Washington Center
07:21PM 35.3206 -79.9678 59° Northeast 450 518 27,000  Level Washington Center
07:22PM 35.3839 -79.8339 60° Northeast 450 518 27,000  Level Washington Center
07:23PM 35.4492 -79.6994 59° Northeast 450 518 27,000  Level Washington Center
07:24PM 35.5100 -79.5700 60° Northeast 450 518 27,000  Level Washington Center
07:25PM 35.5728 -79.4353 60° Northeast 450 518 27,000  Level Washington Center
07:26PM 35.6353 -79.3028 60° Northeast 450 518 27,000  Level Washington Center
07:27PM 35.6958 -79.1700 61° Northeast 450 518 27,000  Level Washington Center
07:28PM 35.7600 -79.0372 59° Northeast 450 518 27,000  Level Washington Center
07:29PM 35.8203 -78.9067 60° Northeast 450 518 27,000  Level Washington Center
07:30PM 35.8761 -78.7656 64° Northeast 450 518 27,000  Level Washington Center
07:31PM 35.8928 -78.6125 82° East 445 512 27,000  Level Washington Center
07:32PM 35.9089 -78.4564 83° East 445 512 27,000  Level Washington Center
07:33PM 35.9389 -78.3422 72° East 445 512 27,000  Level Washington Center
07:34PM 36.0400 -78.2069 47° Northeast 421 484 27,000  Level Washington Center
07:35PM 36.1236 -78.0942 47° Northeast 432 497 27,000  Level Washington Center
07:36PM 36.1703 -77.9539 68° East 437 503 27,000  Level Washington Center
07:37PM 36.1858 -77.8000 83° East 437 503 27,000 60 Level Washington Center
07:38PM 36.2442 -77.6833 58° Northeast 437 503 27,200 840 Climbing Washington Center
07:39PM 36.3336 -77.5772 44° Northeast 428 493 28,700 1,380 Climbing Washington Center
07:40PM 36.4317 -77.4583 44° Northeast 439 505 30,000 1,260 Climbing Washington Center
07:41PM 36.5208 -77.3519 44° Northeast 439 505 31,200 1,200 Climbing Washington Center
07:42PM 36.6100 -77.2403 45° Northeast 439 505 32,400 840 Climbing Washington Center
07:43PM 36.6989 -77.1358 43° Northeast 439 505 33,000 240 Climbing Washington Center
07:44PM 36.7900 -77.0236 45° Northeast 439 505 33,000  Level Washington Center
07:45PM 36.8789 -76.9136 45° Northeast 439 505 33,000  Level Washington Center
07:46PM 36.9697 -76.8058 43° Northeast 439 505 33,000  Level Washington Center
07:47PM 37.0522 -76.7031 45° Northeast 439 505 33,000  Level Washington Center
07:48PM 37.1428 -76.5897 45° Northeast 445 512 33,000  Level Washington Center
07:49PM 37.2356 -76.4789 44° Northeast 450 518 33,000  Level Washington Center
07:50PM 37.3261 -76.3675 44° Northeast 455 524 33,000  Level Washington Center
07:51PM 37.4164 -76.2561 44° Northeast 460 529 33,000  Level Washington Center
07:52PM 37.5211 -76.1364 42° Northeast 454 522 33,000  Level Washington Center
07:53PM 37.6114 -76.0269 44° Northeast 454 522 33,000  Level Washington Center
07:54PM 37.7033 -75.9200 43° Northeast 449 517 33,000  Level Washington Center
07:55PM 37.7956 -75.8361 36° Northeast 449 517 33,000  Level Washington Center
07:56PM 37.9164 -75.7522 29° Northeast 449 517 33,000  Level Washington Center
07:57PM 38.0189 -75.6708 32° Northeast 439 505 33,000  Level Washington Center
07:58PM 38.1189 -75.5811 35° Northeast 439 505 33,000  Level Washington Center
07:59PM 38.2231 -75.4992 32° Northeast 439 505 33,000  Level Washington Center
08:00PM 38.3336 -75.4169 30° Northeast 439 505 33,000  Level Washington Center
08:01PM 38.4375 -75.3292 33° Northeast 444 511 33,000 -60 Level Washington Center
08:02PM 38.5417 -75.2467 32° Northeast 439 505 32,900  Descending Washington Center
08:03PM 38.6456 -75.1689 30° Northeast 439 505 33,000  Climbing Washington Center
08:04PM 38.7517 -75.0833 32° Northeast 439 505 33,000  Level Washington Center
08:05PM 38.8556 -74.9972 33° Northeast 439 505 33,000 -300 Level Washington Center
08:06PM 38.9592 -74.9161 31° Northeast 439 505 32,500 -1,020 Descending Washington Center
08:07PM 39.0608 -74.8325 33° Northeast 439 505 31,000 -1,680 Descending Washington Center
08:08PM 39.1625 -74.7350 37° Northeast 439 505 29,200 -2,340 Descending Washington Center
08:09PM 39.2553 -74.6319 41° Northeast 444 511 26,300 -2,880 Descending Washington Center
08:10PM 39.2692 -74.6164 41° Northeast 433 498 25,600 -2,640 Descending New York Center
08:11PM 39.3642 -74.5142 40° Northeast 428 493 23,000 -2,580 Descending New York Center
08:12PM 39.4547 -74.4167 40° Northeast 422 486 20,600 -2,520 Descending New York Center
08:13PM 39.5497 -74.3114 40° Northeast 422 486 18,100 -1,620 Descending New York Center
08:14PM 39.6339 -74.2186 40° Northeast 407 468 17,400 -1,260 Descending New York Center
08:15PM 39.7156 -74.1281 40° Northeast 389 448 15,600 -2,040 Descending New York Center
08:16PM 39.7886 -74.0506 39° Northeast 380 437 13,400 -2,160 Descending New York Center
08:17PM 39.8681 -73.9703 38° Northeast 367 422 11,300 -1,260 Descending New York Center
08:18PM 39.9531 -73.9067 30° Northeast 340 391 11,000 -180 Descending New York Center
08:19PM 40.0072 -73.8306 47° Northeast 295 339 11,000  Level New York Center
08:20PM 40.0614 -73.7542 47° Northeast 278 320 11,000 -900 Level New York Center
08:21PM 40.1283 -73.7408 North 243 280 9,300 -1,740 Descending New York Center
08:21PM 40.1833 -73.7833 329° Northwest 281 323 7,800 -1,740 Descending New York TRACON
08:22PM 40.2500 -73.8333 330° Northwest 281 323 6,100 -1,680 Descending New York TRACON
08:23PM 40.3167 -73.8833 330° Northwest 275 316 4,700 -1,560 Descending New York TRACON
08:24PM 40.3667 -73.9500 315° West 264 304 3,200 -780 Descending New York TRACON
08:25PM 40.4333 -73.9833 339° North 262 302 3,100 -60 Descending New York TRACON
08:26PM 40.5000 -73.9833 360° North 190 219 3,100 -240 Level New York TRACON
08:27PM 40.5500 -73.9500 27° Northeast 180 207 2,700 -660 Descending New York TRACON
08:28PM 40.5833 -73.9167 37° Northeast 181 208 1,800 -900 Descending New York TRACON